KBYI

Burley Municipal Airport

Burley, Idaho, USA
KBYI 242328Z 2500/2524 27013G23KT P6SM SKC FM250300 VRB04KT P6SM SKC FM251900 31007KT P6SM SKC
Issued Valid From Valid To
Sep-24 @ 23:28 UTC
(2 hours ago)
Sep-25 @ 00:00 UTC
(2 hours ago)
Sep-26 @ 00:00 UTC
(in 22 hours)
Sep-25 @ 00:00 to Sep-25 @ 03:00
KBYI 242328Z 2500/2524 27013G23KT P6SM SKC
Wind Visibility Clouds
270° at 13 knots
 Gusting to 23 knots
Greater than 6 miles
  • Clear skies
From Sep-25 @ 03:00 to Sep-25 @ 19:00
FM250300 VRB04KT P6SM SKC
Wind Visibility Clouds
Variable at 4 knots Greater than 6 miles
  • Clear skies
From Sep-25 @ 19:00 to Sep-26 @ 00:00
FM251900 31007KT P6SM SKC
Wind Visibility Clouds
310° at 7 knots Greater than 6 miles
  • Clear skies
KBYI 242328Z 2500/2524 27013G23KT P6SM SKC FM250300 VRB04KT P6SM SKC FM251900 31007KT P6SM SKC
Issued Sep-24 @ 23:28 UTC
(2 hours ago)
Valid From Sep-25 @ 00:00 UTC
(2 hours ago)
Valid To Sep-26 @ 00:00 UTC
(in 22 hours)
Sep-25 @ 00:00 - Sep-25 @ 03:00
Wind Visibility
270° at 13 knots
 Gusting to 23 knots
Greater than 6 miles
Clouds
  • Clear skies
From Sep-25 @ 03:00 - Sep-25 @ 19:00
Wind Visibility
Variable at 4 knots Greater than 6 miles
Clouds
  • Clear skies
From Sep-25 @ 19:00 - Sep-26 @ 00:00
Wind Visibility
310° at 7 knots Greater than 6 miles
Clouds
  • Clear skies